createdAt,value
2023-03-17T00:00:47.501Z,7.97
2023-03-17T00:03:29.877Z,6.35
2023-03-17T00:06:00.002Z,5.00
2023-03-17T00:08:31.436Z,5.32
2023-03-17T00:11:00.149Z,5.38
2023-03-17T00:13:28.872Z,6.10
2023-03-17T00:16:01.678Z,6.68
2023-03-17T00:18:35.340Z,6.43
2023-03-17T00:21:03.448Z,6.03
2023-03-17T00:23:31.563Z,6.63
2023-03-17T00:25:59.418Z,5.55
2023-03-17T00:28:27.928Z,7.72
2023-03-17T00:31:01.319Z,4.93
2023-03-17T00:33:33.345Z,5.03
2023-03-17T00:36:01.785Z,5.22
2023-03-17T00:38:30.081Z,8.30
2023-03-17T00:40:59.494Z,7.75
2023-03-17T00:43:29.315Z,5.05
2023-03-17T00:45:58.456Z,8.75
2023-03-17T00:48:28.949Z,5.45
2023-03-17T00:50:56.821Z,5.75
2023-03-17T00:53:24.652Z,6.65
2023-03-17T00:55:52.478Z,10.02
2023-03-17T00:58:32.901Z,8.40
2023-03-17T01:01:01.577Z,7.03
2023-03-17T01:03:29.752Z,8.98
2023-03-17T01:05:57.993Z,7.47
2023-03-17T01:08:26.872Z,6.00
2023-03-17T01:10:54.998Z,6.80
2023-03-17T01:13:24.021Z,9.52
2023-03-17T01:15:53.262Z,9.93
2023-03-17T01:18:23.124Z,6.65
2023-03-17T01:20:51.539Z,9.70
2023-03-17T01:23:19.481Z,6.88
2023-03-17T01:25:47.381Z,5.53
2023-03-17T01:28:18.169Z,5.65
2023-03-17T01:30:47.237Z,5.40
2023-03-17T01:33:15.611Z,5.40
2023-03-17T01:35:45.996Z,4.15
2023-03-17T01:38:15.246Z,5.70
2023-03-17T01:40:46.986Z,3.92
2023-03-17T01:43:31.393Z,3.67
2023-03-17T01:46:30.050Z,3.72
2023-03-17T01:49:19.510Z,6.72
2023-03-17T01:52:02.742Z,4.53
2023-03-17T01:54:46.640Z,6.20
2023-03-17T01:57:26.993Z,5.28
2023-03-17T02:00:08.263Z,4.38
2023-03-17T02:02:46.700Z,5.93
2023-03-17T02:05:21.071Z,5.70
2023-03-17T02:07:49.424Z,5.03
2023-03-17T02:10:21.257Z,5.32
2023-03-17T02:12:53.629Z,4.35
2023-03-17T02:15:21.933Z,5.15
2023-03-17T02:17:50.073Z,4.38
2023-03-17T02:20:17.759Z,5.75
2023-03-17T02:22:50.119Z,9.05
2023-03-17T02:25:20.000Z,4.82
2023-03-17T02:27:51.456Z,6.72
2023-03-17T02:30:23.568Z,6.82
2023-03-17T02:32:51.729Z,6.22
2023-03-17T02:35:23.541Z,5.35
2023-03-17T02:37:51.517Z,4.90
2023-03-17T02:40:19.393Z,7.88
2023-03-17T02:42:47.434Z,6.85
2023-03-17T02:45:15.583Z,4.63
2023-03-17T02:47:43.694Z,7.80
2023-03-17T02:50:18.440Z,4.93
2023-03-17T02:52:46.401Z,12.88
2023-03-17T02:55:14.978Z,6.45
2023-03-17T02:57:43.346Z,7.75
2023-03-17T03:00:11.916Z,6.88
2023-03-17T03:02:40.273Z,7.57
2023-03-17T03:05:09.060Z,6.68
2023-03-17T03:07:36.950Z,5.55
2023-03-17T03:10:05.869Z,6.40
2023-03-17T03:12:33.643Z,9.20
2023-03-17T03:15:01.533Z,7.40
2023-03-17T03:17:29.398Z,4.82
2023-03-17T03:19:57.238Z,5.63
2023-03-17T03:22:25.097Z,4.70
2023-03-17T03:24:52.995Z,4.82
2023-03-17T03:27:20.955Z,6.22
2023-03-17T03:29:48.762Z,4.68
2023-03-17T03:32:17.282Z,5.07
2023-03-17T03:34:45.052Z,5.38
2023-03-17T03:37:12.918Z,5.75
2023-03-17T03:39:40.715Z,7.72
2023-03-17T03:42:09.107Z,4.00
2023-03-17T03:44:36.986Z,4.93
2023-03-17T03:47:04.961Z,4.78
2023-03-17T03:49:32.683Z,6.07
2023-03-17T03:52:00.551Z,5.35
2023-03-17T03:54:28.435Z,6.80
2023-03-17T03:56:56.204Z,5.63
2023-03-17T03:59:24.034Z,5.43
2023-03-17T04:01:51.841Z,7.10
2023-03-17T04:04:19.715Z,5.53
2023-03-17T04:06:47.564Z,5.68
2023-03-17T04:09:16.328Z,6.97
2023-03-17T04:11:44.234Z,5.80
2023-03-17T04:14:12.780Z,3.85
2023-03-17T04:16:43.278Z,5.90
2023-03-17T04:19:11.577Z,6.28
2023-03-17T04:21:39.474Z,5.68
2023-03-17T04:24:08.110Z,4.60
2023-03-17T04:26:36.310Z,5.78
2023-03-17T04:29:04.217Z,3.78
2023-03-17T04:31:32.339Z,7.28
2023-03-17T04:34:00.168Z,5.15
2023-03-17T04:36:28.311Z,6.93
2023-03-17T04:38:56.089Z,7.30
2023-03-17T04:41:24.325Z,7.47
2023-03-17T04:43:52.215Z,8.25
2023-03-17T04:46:20.064Z,6.78
2023-03-17T04:48:48.022Z,9.18
2023-03-17T04:51:17.350Z,10.65
2023-03-17T04:53:45.425Z,5.63
2023-03-17T04:56:13.447Z,9.15
2023-03-17T04:58:41.521Z,7.70
2023-03-17T05:01:10.049Z,9.10
2023-03-17T05:03:38.073Z,7.95
2023-03-17T05:06:07.246Z,5.85
2023-03-17T05:08:35.073Z,6.25
2023-03-17T05:11:02.900Z,6.72
2023-03-17T05:13:31.123Z,4.85
2023-03-17T05:16:00.997Z,6.57
2023-03-17T05:18:28.858Z,4.72
2023-03-17T05:20:57.617Z,6.25
2023-03-17T05:23:26.176Z,5.28
2023-03-17T05:25:54.713Z,5.45
2023-03-17T05:28:23.108Z,5.85
2023-03-17T05:30:51.241Z,5.30
2023-03-17T05:33:20.371Z,6.05
2023-03-17T05:35:48.212Z,5.10
2023-03-17T05:38:16.234Z,5.80
2023-03-17T05:40:44.536Z,4.53
2023-03-17T05:43:12.650Z,5.88
2023-03-17T05:45:41.400Z,9.35
2023-03-17T05:48:09.388Z,8.05
2023-03-17T05:50:37.459Z,7.00
2023-03-17T05:53:06.535Z,8.07
2023-03-17T05:55:34.435Z,3.92
2023-03-17T05:58:04.800Z,5.43
2023-03-17T06:00:37.976Z,5.43
2023-03-17T06:03:06.093Z,7.20
2023-03-17T06:05:35.219Z,6.35
2023-03-17T06:08:03.064Z,4.53
2023-03-17T06:10:31.484Z,3.92
2023-03-17T06:13:00.396Z,4.65
2023-03-17T06:15:29.493Z,5.57
2023-03-17T06:17:57.559Z,5.82
2023-03-17T06:20:25.825Z,6.28
2023-03-17T06:23:03.832Z,5.10
2023-03-17T06:25:36.240Z,5.15
2023-03-17T06:28:05.701Z,5.47
2023-03-17T06:30:35.417Z,6.68
2023-03-17T06:33:04.300Z,4.75
2023-03-17T06:35:33.825Z,4.97
2023-03-17T06:38:02.457Z,3.90
2023-03-17T06:40:41.134Z,3.75
2023-03-17T06:43:09.459Z,3.55
2023-03-17T06:45:37.665Z,2.58
2023-03-17T06:48:07.126Z,2.63
2023-03-17T06:50:34.990Z,3.72
2023-03-17T06:53:02.946Z,4.40
2023-03-17T06:55:32.142Z,3.13
2023-03-17T06:58:00.668Z,5.65
2023-03-17T07:00:28.526Z,3.40
2023-03-17T07:02:56.800Z,5.03
2023-03-17T07:05:24.868Z,5.35
2023-03-17T07:07:52.895Z,3.30
2023-03-17T07:10:20.871Z,3.75
2023-03-17T07:12:49.168Z,3.47
2023-03-17T07:15:18.971Z,4.57
2023-03-17T07:17:49.660Z,5.00
2023-03-17T07:20:18.027Z,3.28
2023-03-17T07:22:45.796Z,2.58
2023-03-17T07:25:13.731Z,3.72
2023-03-17T07:27:41.702Z,3.72
2023-03-17T07:30:10.985Z,3.90
2023-03-17T07:32:39.609Z,3.58
2023-03-17T07:35:08.346Z,3.75
2023-03-17T07:37:36.555Z,4.35
2023-03-17T07:40:05.396Z,5.40
2023-03-17T07:42:34.213Z,5.57
2023-03-17T07:45:02.800Z,4.18
2023-03-17T07:47:30.644Z,4.45
2023-03-17T07:49:58.486Z,2.75
2023-03-17T07:52:26.508Z,5.30
2023-03-17T07:54:56.015Z,6.07
2023-03-17T07:57:24.587Z,3.65
2023-03-17T07:59:52.406Z,3.92
2023-03-17T08:02:21.365Z,5.70
2023-03-17T08:04:49.372Z,3.20
2023-03-17T08:07:17.559Z,3.92
2023-03-17T08:09:45.582Z,3.03
2023-03-17T08:12:13.862Z,3.28
2023-03-17T08:14:41.706Z,2.92
2023-03-17T08:17:10.741Z,2.10
2023-03-17T08:19:38.649Z,1.83
2023-03-17T08:22:06.837Z,2.47
2023-03-17T08:24:38.609Z,2.25
2023-03-17T08:27:07.993Z,2.55
2023-03-17T08:29:36.126Z,2.05
2023-03-17T08:32:04.017Z,1.83
2023-03-17T08:34:31.971Z,3.83
2023-03-17T08:37:01.951Z,1.88
2023-03-17T08:39:30.147Z,2.00
2023-03-17T08:41:58.324Z,3.75
2023-03-17T08:44:26.592Z,2.92
2023-03-17T08:46:54.516Z,3.35
2023-03-17T08:49:23.174Z,1.95
2023-03-17T08:51:52.172Z,1.38
2023-03-17T08:54:20.024Z,2.35
2023-03-17T08:56:47.853Z,2.83
2023-03-17T08:59:16.971Z,3.00
2023-03-17T09:01:45.826Z,1.65
2023-03-17T09:04:13.741Z,1.60
2023-03-17T09:06:51.902Z,3.33
2023-03-17T09:09:31.309Z,2.08
2023-03-17T09:11:59.661Z,4.07
2023-03-17T09:14:29.569Z,4.80
2023-03-17T09:16:57.794Z,2.70
2023-03-17T09:19:25.912Z,1.85
2023-03-17T09:21:53.967Z,5.90
2023-03-17T09:24:21.826Z,5.32
2023-03-17T09:26:49.699Z,4.40
2023-03-17T09:29:17.585Z,3.30
2023-03-17T09:31:45.519Z,3.13
2023-03-17T09:34:13.690Z,3.80
2023-03-17T09:36:41.529Z,3.05
2023-03-17T09:39:09.342Z,3.70
2023-03-17T09:42:01.295Z,2.60
2023-03-17T09:45:03.582Z,3.25
2023-03-17T09:47:53.823Z,2.78
2023-03-17T09:50:51.215Z,4.22
2023-03-17T09:53:24.320Z,3.47
2023-03-17T09:55:58.485Z,4.40
2023-03-17T10:00:57.822Z,4.47
2023-03-17T10:03:27.338Z,4.35
2023-03-17T10:06:18.063Z,4.35
2023-03-17T10:09:00.901Z,2.35
2023-03-17T10:11:37.420Z,3.70
2023-03-17T10:14:21.617Z,4.35
2023-03-17T10:17:02.167Z,4.60
2023-03-17T10:19:35.526Z,2.72
2023-03-17T10:22:16.187Z,2.90
2023-03-17T10:24:54.615Z,5.75
2023-03-17T10:27:23.499Z,3.85
2023-03-17T10:29:51.383Z,4.90
2023-03-17T10:32:19.227Z,2.85
2023-03-17T10:34:48.867Z,7.03
2023-03-17T10:37:23.292Z,5.05
2023-03-17T10:39:54.641Z,3.47
2023-03-17T10:42:25.980Z,3.50
2023-03-17T10:45:30.977Z,5.18
2023-03-17T10:48:01.434Z,4.07
2023-03-17T10:50:36.186Z,6.97
2023-03-17T10:53:04.015Z,3.10
2023-03-17T10:55:34.496Z,4.85
2023-03-17T10:58:16.766Z,2.97
2023-03-17T11:01:07.988Z,4.03
2023-03-17T11:03:39.837Z,4.55
2023-03-17T11:06:11.790Z,3.78
2023-03-17T11:08:42.608Z,6.82
2023-03-17T11:11:24.031Z,4.40
2023-03-17T11:14:01.367Z,3.63
2023-03-17T11:16:29.642Z,3.15
2023-03-17T11:19:00.875Z,4.15
2023-03-17T11:21:38.883Z,8.80
2023-03-17T11:24:12.778Z,4.10
2023-03-17T11:26:48.692Z,4.05
2023-03-17T11:29:35.363Z,4.50
2023-03-17T11:32:28.497Z,5.80
2023-03-17T11:35:14.566Z,4.45
2023-03-17T11:41:37.114Z,4.47
2023-03-17T11:44:40.611Z,4.55
2023-03-17T11:47:29.157Z,4.82
2023-03-17T11:50:22.567Z,3.65
2023-03-17T11:53:10.544Z,4.47
2023-03-17T11:56:00.773Z,5.35
2023-03-17T11:58:44.861Z,6.53
2023-03-17T12:01:22.888Z,4.60
2023-03-17T12:04:19.045Z,5.25
2023-03-17T12:06:57.991Z,4.10
2023-03-17T12:09:36.328Z,5.63
2023-03-17T12:12:08.185Z,8.35
2023-03-17T12:14:49.089Z,5.57
2023-03-17T12:17:45.971Z,6.32
2023-03-17T12:20:19.180Z,6.50
2023-03-17T12:22:57.614Z,3.93
2023-03-17T12:25:42.119Z,4.55
2023-03-17T12:28:28.803Z,4.20
2023-03-17T12:31:10.829Z,5.15
2023-03-17T12:36:38.977Z,4.93
2023-03-17T12:42:49.458Z,4.93
2023-03-17T12:45:45.274Z,7.05
2023-03-17T12:48:27.662Z,7.82
2023-03-17T12:51:32.361Z,5.47
2023-03-17T12:54:01.277Z,4.38
2023-03-17T12:56:30.570Z,4.93
2023-03-17T12:59:09.123Z,5.07
2023-03-17T13:01:50.555Z,6.70
2023-03-17T13:04:37.433Z,7.88
2023-03-17T13:07:17.817Z,6.43
2023-03-17T13:09:53.700Z,5.25
2023-03-17T13:13:13.192Z,4.78
2023-03-17T13:15:41.546Z,4.22
2023-03-17T13:18:12.736Z,7.78
2023-03-17T13:20:58.100Z,5.05
2023-03-17T13:23:57.479Z,6.78
2023-03-17T13:26:53.616Z,6.82
2023-03-17T13:29:33.556Z,5.05
2023-03-17T13:32:41.080Z,4.80
2023-03-17T13:38:23.430Z,5.07
2023-03-17T13:40:53.167Z,5.68
2023-03-17T13:43:58.985Z,5.82
2023-03-17T13:46:40.401Z,9.10
2023-03-17T13:49:21.599Z,5.93
2023-03-17T13:52:12.343Z,6.70
2023-03-17T13:55:19.438Z,5.85
2023-03-17T14:01:04.417Z,5.85
2023-03-17T14:03:46.796Z,6.90
2023-03-17T14:06:25.940Z,5.03
2023-03-17T17:02:27.394Z,7.25
2023-03-17T17:26:58.188Z,11.55
2023-03-17T17:32:18.292Z,10.73
2023-03-17T17:34:46.170Z,8.13
2023-03-17T17:37:14.048Z,14.05
2023-03-17T17:39:42.148Z,11.32
2023-03-17T17:42:12.091Z,11.18
2023-03-17T17:44:40.171Z,8.25
2023-03-17T17:47:08.258Z,9.15
2023-03-17T17:49:36.244Z,12.40
2023-03-17T17:52:05.274Z,9.88
2023-03-17T17:54:33.726Z,10.27
2023-03-17T17:57:01.706Z,11.85
2023-03-17T17:59:29.766Z,10.20
2023-03-17T18:01:57.549Z,9.70
2023-03-17T18:04:26.081Z,12.18
2023-03-17T18:06:53.911Z,11.13
2023-03-17T18:09:21.978Z,8.85
2023-03-17T18:11:49.847Z,10.75
2023-03-17T18:14:17.616Z,10.63
2023-03-17T18:16:46.057Z,15.13
2023-03-17T18:19:15.745Z,13.70
2023-03-17T18:21:47.283Z,11.48
2023-03-17T18:24:16.092Z,12.88
2023-03-17T18:26:45.483Z,12.63
2023-03-17T18:29:14.362Z,11.45
2023-03-17T18:31:46.704Z,8.18
2023-03-17T18:34:22.907Z,13.60
2023-03-17T18:36:52.129Z,13.82
2023-03-17T18:39:20.057Z,10.70
2023-03-17T18:41:49.070Z,16.02
2023-03-17T18:44:18.994Z,17.35
2023-03-17T18:46:46.842Z,20.02
2023-03-17T18:49:14.685Z,18.60
2023-03-17T18:51:42.492Z,20.40
2023-03-17T18:54:11.091Z,16.67
2023-03-17T18:56:38.988Z,20.45
2023-03-17T18:59:07.022Z,11.85
2023-03-17T19:01:35.019Z,14.57
2023-03-17T19:04:04.887Z,16.88
2023-03-17T19:06:32.758Z,14.27
2023-03-17T19:09:01.052Z,12.15
2023-03-17T19:11:28.851Z,11.05
2023-03-17T19:13:58.361Z,15.27
2023-03-17T19:16:29.337Z,12.35
2023-03-17T19:18:57.915Z,13.95
2023-03-17T19:21:26.888Z,14.52
2023-03-17T19:23:55.313Z,13.93
2023-03-17T19:26:23.139Z,15.23
2023-03-17T19:28:50.984Z,17.10
2023-03-17T19:31:18.831Z,20.17
2023-03-17T19:33:46.691Z,20.70
2023-03-17T19:36:14.548Z,18.40
2023-03-17T19:38:42.625Z,13.80
2023-03-17T19:41:10.548Z,12.48
2023-03-17T19:43:41.267Z,15.32
2023-03-17T19:46:12.034Z,16.58
2023-03-17T19:48:40.761Z,16.27
2023-03-17T19:51:09.541Z,14.90
2023-03-17T19:53:37.656Z,14.35
2023-03-17T19:56:06.552Z,12.82
2023-03-17T19:58:34.738Z,10.75
2023-03-17T20:01:07.079Z,14.30
2023-03-17T20:03:38.089Z,12.73
2023-03-17T20:06:06.651Z,17.08
2023-03-17T20:08:34.419Z,16.30
2023-03-17T20:11:02.736Z,16.65
2023-03-17T20:13:30.551Z,21.42
2023-03-17T20:15:58.420Z,17.45
2023-03-17T20:18:26.269Z,17.40
2023-03-17T20:20:57.372Z,17.58
2023-03-17T20:23:25.556Z,16.92
2023-03-17T20:25:53.900Z,14.90
2023-03-17T20:28:21.952Z,26.48
2023-03-17T20:30:50.422Z,18.50
2023-03-17T20:33:18.744Z,22.80
2023-03-17T20:35:47.891Z,27.75
2023-03-17T20:38:16.711Z,16.58
2023-03-17T20:40:46.943Z,19.27
2023-03-17T20:43:15.644Z,20.75
2023-03-17T20:45:44.241Z,17.48
2023-03-17T20:48:12.739Z,26.90
2023-03-17T20:50:50.566Z,21.98
2023-03-17T20:53:18.616Z,18.88
2023-03-17T20:55:48.174Z,21.35
2023-03-17T20:58:16.480Z,20.83
2023-03-17T21:00:44.871Z,22.42
2023-03-17T21:03:12.856Z,19.30
2023-03-17T21:05:41.862Z,18.92
2023-03-17T21:08:10.496Z,18.73
2023-03-17T21:10:38.647Z,17.73
2023-03-17T21:13:06.802Z,15.68
2023-03-17T21:15:34.818Z,17.27
2023-03-17T21:18:02.881Z,15.15
2023-03-17T21:20:31.297Z,20.73
2023-03-17T21:23:00.526Z,15.18
2023-03-17T21:25:28.343Z,15.05
2023-03-17T21:27:56.677Z,13.00
2023-03-17T21:30:24.529Z,15.90
2023-03-17T21:32:54.804Z,12.27
2023-03-17T21:35:25.045Z,10.05
2023-03-17T21:37:53.647Z,10.82
2023-03-17T21:40:22.573Z,14.88
2023-03-17T21:42:50.918Z,13.90
2023-03-17T21:45:20.154Z,17.02
2023-03-17T21:47:48.722Z,12.77
2023-03-17T21:50:19.034Z,11.82
2023-03-17T21:52:46.888Z,14.35
2023-03-17T21:55:15.925Z,12.98
2023-03-17T21:57:44.014Z,16.17
2023-03-17T22:00:12.655Z,16.58
2023-03-17T22:02:42.131Z,12.88
2023-03-17T22:05:10.904Z,12.93
2023-03-17T22:07:41.171Z,14.85
2023-03-17T22:10:10.596Z,17.80
2023-03-17T22:12:39.199Z,19.10
2023-03-17T22:15:09.058Z,24.92
2023-03-17T22:17:37.600Z,23.60
2023-03-17T22:20:08.048Z,16.25
2023-03-17T22:22:36.203Z,15.93
2023-03-17T22:25:06.328Z,19.13
2023-03-17T22:27:34.139Z,17.73
2023-03-17T22:30:02.216Z,17.30
2023-03-17T22:32:30.528Z,15.45
2023-03-17T22:35:02.584Z,23.55
2023-03-17T22:37:30.510Z,19.48
2023-03-17T22:40:03.068Z,17.33
2023-03-17T22:42:32.412Z,18.35
2023-03-17T22:45:00.266Z,15.63
2023-03-17T22:47:28.141Z,15.93
2023-03-17T22:49:56.503Z,16.80
2023-03-17T22:52:24.703Z,15.48
2023-03-17T22:54:52.558Z,16.52
2023-03-17T22:57:20.526Z,15.98
2023-03-17T22:59:48.361Z,17.50
2023-03-17T23:02:18.568Z,18.52
2023-03-17T23:04:46.510Z,17.33
2023-03-17T23:07:14.772Z,15.73
2023-03-17T23:09:45.762Z,16.25
2023-03-17T23:12:13.977Z,19.38
2023-03-17T23:14:42.048Z,16.13
2023-03-17T23:17:10.073Z,13.45
2023-03-17T23:19:37.983Z,16.83
2023-03-17T23:22:06.132Z,16.90
2023-03-17T23:24:33.937Z,20.10
2023-03-17T23:27:01.920Z,19.13
2023-03-17T23:29:29.871Z,17.67
2023-03-17T23:31:57.948Z,16.80
2023-03-17T23:34:26.004Z,15.05
2023-03-17T23:36:53.794Z,14.95
2023-03-17T23:39:21.601Z,18.15
2023-03-17T23:41:49.782Z,16.20
2023-03-17T23:44:17.673Z,15.75
2023-03-17T23:46:45.468Z,16.90
2023-03-17T23:49:13.399Z,19.60
2023-03-17T23:51:41.650Z,20.42
2023-03-17T23:54:10.315Z,19.02
2023-03-17T23:56:38.198Z,21.75
2023-03-17T23:59:07.613Z,18.80
